Time;durP1;ratioP1;P1;durP2;ratioP2;P2;SDS_P1;SDS_P2;PMS_P1;PMS_P2;Temp;Humidity;BMP_temperature;BMP_pressure;BME280_temperature;BME280_humidity;BME280_pressure;Samples;Min_cycle;Max_cycle;Signal;HPM_P1;HPM_P2
2021/11/25 00:00:43;;;;;;;23.20;15.47;;;3.70;99.90;;;;;;5040282;28;20469;-85
2021/11/25 00:03:10;;;;;;;23.43;15.87;;;3.50;99.90;;;;;;5047876;28;20479;-84
2021/11/25 00:05:39;;;;;;;27.47;16.30;;;3.60;99.90;;;;;;5049000;28;20441;-84
2021/11/25 00:08:07;;;;;;;23.17;15.27;;;3.50;99.90;;;;;;5049226;28;20433;-85
2021/11/25 00:10:35;;;;;;;22.30;14.27;;;3.60;99.90;;;;;;5017111;28;20839;-85
2021/11/25 00:13:01;;;;;;;23.67;14.57;;;3.60;99.90;;;;;;5027768;28;20448;-84
2021/11/25 00:15:28;;;;;;;20.90;14.10;;;3.70;99.90;;;;;;5042555;28;20437;-85
2021/11/25 00:17:55;;;;;;;20.77;15.10;;;3.70;99.90;;;;;;5052438;28;20456;-85
2021/11/25 00:20:23;;;;;;;20.90;14.97;;;3.50;99.90;;;;;;5037166;28;20473;-85
2021/11/25 00:22:50;;;;;;;22.30;14.87;;;3.50;99.90;;;;;;5035398;28;20473;-84
2021/11/25 00:25:18;;;;;;;20.47;14.33;;;3.60;99.90;;;;;;5036750;28;20820;-85
2021/11/25 00:27:45;;;;;;;25.17;16.17;;;3.60;99.90;;;;;;5035900;28;20452;-85
2021/11/25 00:30:13;;;;;;;22.60;15.90;;;3.70;99.90;;;;;;5038219;28;20484;-85
2021/11/25 00:32:40;;;;;;;21.13;14.17;;;3.80;99.90;;;;;;5048632;28;20457;-84
2021/11/25 00:35:08;;;;;;;23.97;15.50;;;3.80;99.90;;;;;;5046203;28;20473;-84
2021/11/25 00:37:35;;;;;;;23.10;15.87;;;3.80;99.90;;;;;;5051849;28;20429;-84
2021/11/25 00:40:02;;;;;;;23.40;16.07;;;3.90;99.90;;;;;;5048815;28;20449;-84
2021/11/25 00:42:30;;;;;;;22.90;14.80;;;3.90;99.90;;;;;;5045561;28;20505;-85
2021/11/25 00:44:57;;;;;;;24.70;16.07;;;3.90;99.90;;;;;;5040079;28;20457;-84
2021/11/25 00:47:24;;;;;;;20.57;14.80;;;3.90;99.90;;;;;;5036699;28;20826;-85
2021/11/25 00:49:50;;;;;;;23.00;16.13;;;3.90;99.90;;;;;;5034840;28;20454;-84
2021/11/25 00:52:17;;;;;;;21.57;14.73;;;4.00;99.90;;;;;;5036710;28;20449;-84
2021/11/25 00:54:44;;;;;;;21.50;14.60;;;3.90;99.90;;;;;;5035726;28;20448;-84
2021/11/25 00:57:11;;;;;;;23.17;14.70;;;3.80;99.90;;;;;;5035756;28;20446;-84
2021/11/25 00:59:39;;;;;;;21.00;14.50;;;3.90;99.90;;;;;;5034932;28;20449;-84
2021/11/25 01:02:06;;;;;;;16.83;13.50;;;4.00;99.90;;;;;;5034623;28;20489;-84
2021/11/25 01:04:32;;;;;;;23.47;15.77;;;4.00;99.90;;;;;;5034692;28;20476;-84
2021/11/25 01:06:59;;;;;;;23.47;16.53;;;3.90;99.90;;;;;;5051220;28;20452;-84
2021/11/25 01:09:26;;;;;;;19.57;15.13;;;3.80;99.90;;;;;;5057210;28;20426;-85
2021/11/25 01:12:00;;;;;;;23.10;15.77;;;3.80;99.90;;;;;;5051437;28;20465;-85
2021/11/25 01:14:27;;;;;;;18.70;14.23;;;3.80;99.90;;;;;;5023058;28;20445;-84
2021/11/25 01:16:56;;;;;;;18.37;13.17;;;3.90;99.90;;;;;;5018301;28;20437;-84
2021/11/25 01:19:22;;;;;;;20.70;15.53;;;3.90;99.90;;;;;;5034748;28;20441;-85
2021/11/25 01:21:49;;;;;;;19.83;14.37;;;3.90;99.90;;;;;;5035291;28;20489;-85
2021/11/25 01:24:16;;;;;;;23.07;15.43;;;3.90;99.90;;;;;;5036060;28;20510;-85
2021/11/25 01:26:43;;;;;;;22.70;17.03;;;3.70;99.90;;;;;;5037028;28;20453;-84
2021/11/25 01:29:11;;;;;;;22.77;14.77;;;3.60;99.90;;;;;;5036924;28;20445;-84
2021/11/25 01:31:38;;;;;;;20.20;14.70;;;3.70;99.90;;;;;;5034899;28;20480;-85
2021/11/25 01:34:06;;;;;;;21.60;14.90;;;3.70;99.90;;;;;;5045158;28;20445;-84
2021/11/25 01:36:33;;;;;;;23.17;15.30;;;3.70;99.90;;;;;;5049304;28;20441;-84
2021/11/25 01:39:00;;;;;;;23.60;16.00;;;3.70;99.90;;;;;;5046620;28;20429;-84
2021/11/25 01:41:27;;;;;;;23.00;14.80;;;3.60;99.90;;;;;;5035950;28;20468;-85
2021/11/25 01:43:54;;;;;;;21.53;15.20;;;3.60;99.90;;;;;;5046457;28;20446;-85
2021/11/25 01:46:22;;;;;;;23.53;15.47;;;3.50;99.90;;;;;;5034761;28;20846;-84
2021/11/25 01:48:50;;;;;;;23.30;14.87;;;3.50;99.90;;;;;;5033794;28;20960;-84
2021/11/25 01:51:20;;;;;;;27.07;15.37;;;3.50;99.90;;;;;;5033569;28;20466;-85
2021/11/25 01:53:48;;;;;;;23.80;15.40;;;3.60;99.90;;;;;;5046811;28;20449;-85
2021/11/25 01:56:15;;;;;;;22.87;14.37;;;3.70;99.90;;;;;;5036045;28;20452;-85
2021/11/25 01:58:42;;;;;;;21.90;15.80;;;3.80;99.90;;;;;;5034490;28;20448;-85
2021/11/25 02:01:13;;;;;;;23.50;15.70;;;3.90;99.90;;;;;;5033395;28;20473;-84
2021/11/25 02:03:40;;;;;;;24.00;15.23;;;3.90;99.90;;;;;;5035666;28;20477;-84
2021/11/25 02:06:09;;;;;;;20.30;15.07;;;3.80;99.90;;;;;;5049178;28;20543;-85
2021/11/25 02:08:38;;;;;;;23.83;16.37;;;3.60;99.90;;;;;;5038757;28;20500;-84
2021/11/25 02:11:05;;;;;;;20.70;14.57;;;3.60;99.90;;;;;;5045740;28;20465;-84
2021/11/25 02:13:31;;;;;;;24.10;16.43;;;3.70;99.90;;;;;;5034242;28;20445;-84
2021/11/25 02:15:59;;;;;;;26.17;15.87;;;3.80;99.90;;;;;;5034339;28;20457;-84
2021/11/25 02:18:27;;;;;;;26.57;16.57;;;3.80;99.90;;;;;;5033413;28;20452;-84
2021/11/25 02:20:58;;;;;;;21.00;15.27;;;3.80;99.90;;;;;;5039469;28;20445;-83
2021/11/25 02:23:25;;;;;;;22.73;15.17;;;3.60;99.90;;;;;;5044079;28;20520;-84
2021/11/25 02:25:53;;;;;;;23.67;16.67;;;3.60;99.90;;;;;;5034644;28;20445;-84
2021/11/25 02:28:21;;;;;;;21.03;15.50;;;3.60;99.90;;;;;;5041046;28;20444;-84
2021/11/25 02:30:49;;;;;;;21.03;14.50;;;3.80;99.90;;;;;;5044857;28;21007;-84
2021/11/25 02:33:16;;;;;;;24.40;16.63;;;3.80;99.90;;;;;;5038183;28;20444;-85
2021/11/25 02:35:45;;;;;;;23.07;15.73;;;3.80;99.90;;;;;;5052190;28;20451;-85
2021/11/25 02:38:14;;;;;;;22.00;15.03;;;3.90;99.90;;;;;;5035855;28;20442;-85
2021/11/25 02:40:43;;;;;;;19.87;14.27;;;3.90;99.90;;;;;;5033802;28;21075;-84
2021/11/25 02:43:12;;;;;;;20.83;14.13;;;4.00;99.90;;;;;;5034697;28;20515;-85
2021/11/25 02:45:48;;;;;;;23.17;16.57;;;4.00;99.90;;;;;;5034583;28;20461;-85
2021/11/25 02:48:16;;;;;;;21.73;15.20;;;4.00;99.90;;;;;;5043844;28;20451;-85
2021/11/25 02:50:43;;;;;;;20.77;15.03;;;4.00;99.90;;;;;;5046429;28;20456;-85
2021/11/25 02:53:11;;;;;;;22.57;15.43;;;3.90;99.90;;;;;;5046172;28;20441;-85
2021/11/25 02:55:39;;;;;;;23.17;15.90;;;3.90;99.90;;;;;;5056208;28;20785;-85
2021/11/25 02:58:06;;;;;;;22.37;15.63;;;4.00;99.90;;;;;;5057830;28;20470;-85
2021/11/25 03:00:37;;;;;;;21.20;16.30;;;4.00;99.90;;;;;;5055407;28;20468;-85
2021/11/25 03:03:08;;;;;;;20.50;16.23;;;3.90;99.90;;;;;;5056525;28;20485;-85
2021/11/25 03:05:36;;;;;;;23.00;15.87;;;3.90;99.90;;;;;;5036631;28;20453;-85
2021/11/25 03:08:05;;;;;;;23.40;14.73;;;3.90;99.90;;;;;;5043159;28;20440;-85
2021/11/25 03:10:36;;;;;;;20.30;16.40;;;3.90;99.90;;;;;;5038690;28;20469;-85
2021/11/25 03:13:06;;;;;;;26.33;16.70;;;3.90;99.90;;;;;;5039174;28;20445;-85
2021/11/25 03:15:35;;;;;;;24.63;17.70;;;3.90;99.90;;;;;;5039756;28;20445;-85
2021/11/25 03:18:02;;;;;;;24.17;16.20;;;3.90;99.90;;;;;;5037152;28;20452;-85
2021/11/25 03:20:29;;;;;;;24.53;15.60;;;3.90;99.90;;;;;;5038631;28;20488;-85
2021/11/25 03:22:55;;;;;;;20.63;14.07;;;3.70;99.90;;;;;;5036806;28;20480;-85
2021/11/25 03:25:22;;;;;;;21.80;15.93;;;3.70;99.90;;;;;;5037922;28;20456;-85
2021/11/25 03:27:50;;;;;;;23.03;15.07;;;3.70;99.90;;;;;;5037083;28;20448;-84
2021/11/25 03:30:18;;;;;;;23.70;15.93;;;3.70;99.90;;;;;;5050084;28;20480;-85
2021/11/25 03:32:45;;;;;;;22.90;16.17;;;3.70;99.90;;;;;;5038610;28;20452;-85
2021/11/25 03:35:12;;;;;;;22.17;15.30;;;3.70;99.90;;;;;;5037362;28;20445;-85
2021/11/25 03:37:39;;;;;;;20.30;14.70;;;3.60;99.90;;;;;;5048981;28;20451;-84
2021/11/25 03:40:08;;;;;;;26.67;16.47;;;3.70;99.90;;;;;;5036096;28;20473;-84
2021/11/25 03:42:35;;;;;;;23.07;16.93;;;3.70;99.90;;;;;;5040250;28;20508;-85
2021/11/25 03:45:02;;;;;;;27.10;18.17;;;3.70;99.90;;;;;;5052016;28;20456;-84
2021/11/25 03:47:30;;;;;;;30.07;18.10;;;3.70;99.90;;;;;;5042127;28;20466;-85
2021/11/25 03:49:56;;;;;;;28.30;17.93;;;3.60;99.90;;;;;;5036933;28;20445;-84
2021/11/25 03:52:23;;;;;;;25.20;18.03;;;3.70;99.90;;;;;;5036552;28;20452;-85
2021/11/25 03:54:54;;;;;;;28.43;18.50;;;3.70;99.90;;;;;;5036097;28;20449;-85
2021/11/25 03:57:21;;;;;;;23.93;16.83;;;3.70;99.90;;;;;;5036912;28;20521;-85
2021/11/25 03:59:48;;;;;;;31.47;19.30;;;3.70;99.90;;;;;;5055224;28;20453;-86
2021/11/25 04:02:15;;;;;;;23.70;15.77;;;3.60;99.90;;;;;;5051531;28;20454;-85
2021/11/25 04:04:43;;;;;;;24.20;16.63;;;3.70;99.90;;;;;;5038651;28;20459;-84
2021/11/25 04:07:10;;;;;;;30.60;17.73;;;3.70;99.90;;;;;;5040644;28;20451;-86
2021/11/25 04:09:37;;;;;;;25.67;18.30;;;3.60;99.90;;;;;;5052903;28;20457;-85
2021/11/25 04:12:04;;;;;;;28.30;19.10;;;3.70;99.90;;;;;;5043264;28;20465;-84
2021/11/25 04:14:31;;;;;;;25.60;16.57;;;3.70;99.90;;;;;;5037854;28;20441;-84
2021/11/25 04:16:58;;;;;;;25.90;16.90;;;3.70;99.90;;;;;;5035675;28;20456;-84
2021/11/25 04:19:26;;;;;;;27.50;18.70;;;3.70;99.90;;;;;;5035895;28;20496;-84
2021/11/25 04:21:54;;;;;;;25.43;18.50;;;3.70;99.90;;;;;;5047134;28;20470;-85
2021/11/25 04:24:21;;;;;;;27.27;18.10;;;3.70;99.90;;;;;;5053885;28;20495;-85
2021/11/25 04:26:48;;;;;;;33.20;19.10;;;3.70;99.90;;;;;;5048940;28;20453;-85
2021/11/25 04:29:15;;;;;;;25.20;17.63;;;3.70;99.90;;;;;;5047988;28;20453;-85
2021/11/25 04:37:15;;;;;;;25.13;17.00;;;3.60;99.90;;;;;;5042061;28;20449;-85
2021/11/25 04:39:42;;;;;;;27.47;18.43;;;3.60;99.90;;;;;;5048120;28;20480;-85
2021/11/25 04:42:09;;;;;;;26.47;17.37;;;3.70;99.90;;;;;;5056181;28;20473;-85
2021/11/25 04:44:36;;;;;;;27.20;17.97;;;3.60;99.90;;;;;;5049207;28;20460;-85
2021/11/25 04:47:04;;;;;;;24.53;16.60;;;3.60;99.90;;;;;;5052174;28;20449;-85
2021/11/25 04:49:30;;;;;;;26.57;17.90;;;3.70;99.90;;;;;;5037802;28;20449;-85
2021/11/25 04:51:57;;;;;;;26.57;18.13;;;3.70;99.90;;;;;;5036406;28;20469;-85
2021/11/25 04:54:25;;;;;;;28.60;18.83;;;3.70;99.90;;;;;;5036376;28;20460;-83
2021/11/25 04:56:52;;;;;;;28.97;18.60;;;3.70;99.90;;;;;;5034470;28;20458;-84
2021/11/25 04:59:19;;;;;;;30.30;19.43;;;3.70;99.90;;;;;;5035227;28;20536;-85
2021/11/25 05:01:45;;;;;;;27.00;18.60;;;3.70;99.90;;;;;;5035588;28;20471;-85
2021/11/25 05:04:12;;;;;;;32.87;19.77;;;3.80;99.90;;;;;;5036274;28;20483;-84
2021/11/25 05:06:39;;;;;;;28.67;19.20;;;3.80;99.90;;;;;;5050624;28;20533;-85
2021/11/25 05:09:06;;;;;;;29.63;19.17;;;3.80;99.90;;;;;;5038908;28;20477;-84
2021/11/25 05:11:34;;;;;;;29.43;18.70;;;3.80;99.90;;;;;;5047484;28;20507;-84
2021/11/25 05:14:01;;;;;;;26.70;18.60;;;3.70;99.90;;;;;;5037197;28;20884;-84
2021/11/25 05:16:27;;;;;;;24.63;17.30;;;3.70;99.90;;;;;;5035179;28;20521;-85
2021/11/25 05:18:54;;;;;;;30.13;19.53;;;3.70;99.90;;;;;;5050447;28;20448;-84
2021/11/25 05:21:21;;;;;;;26.67;17.47;;;3.80;99.90;;;;;;5053235;28;20904;-84
2021/11/25 05:23:48;;;;;;;26.47;17.73;;;3.80;99.90;;;;;;5046017;28;20564;-85
2021/11/25 05:26:14;;;;;;;22.40;17.20;;;3.90;99.90;;;;;;5051692;28;20473;-85
2021/11/25 05:28:43;;;;;;;24.53;18.10;;;3.90;99.90;;;;;;5039150;28;20459;-84
2021/11/25 05:31:09;;;;;;;26.93;19.13;;;3.90;99.90;;;;;;5038798;28;20491;-85
2021/11/25 05:33:36;;;;;;;25.17;17.53;;;3.90;99.90;;;;;;5047694;28;20503;-84
2021/11/25 05:36:03;;;;;;;27.40;17.10;;;3.90;99.90;;;;;;5043671;28;20458;-84
2021/11/25 05:38:30;;;;;;;27.07;18.13;;;3.90;99.90;;;;;;5043141;28;20453;-85
2021/11/25 05:40:57;;;;;;;22.10;16.87;;;3.90;99.90;;;;;;5054811;28;20515;-87
2021/11/25 05:43:24;;;;;;;27.60;17.07;;;4.00;99.90;;;;;;5051408;28;20482;-87
2021/11/25 05:45:54;;;;;;;24.67;16.80;;;4.00;99.90;;;;;;5051183;28;20435;-86
2021/11/25 05:48:22;;;;;;;22.70;17.13;;;4.00;99.90;;;;;;5051410;28;20514;-85
2021/11/25 05:50:49;;;;;;;25.20;17.57;;;4.00;99.90;;;;;;5049254;28;20475;-86
2021/11/25 05:53:18;;;;;;;23.80;16.50;;;4.10;99.90;;;;;;5053254;28;20440;-85
2021/11/25 05:55:45;;;;;;;26.43;18.70;;;4.10;99.90;;;;;;5045680;28;20476;-86
2021/11/25 05:58:12;;;;;;;25.70;17.43;;;4.00;99.90;;;;;;5044612;28;20451;-86
2021/11/25 06:00:39;;;;;;;26.90;18.93;;;4.10;99.90;;;;;;5041249;28;21011;-86
2021/11/25 06:03:07;;;;;;;32.47;18.67;;;4.10;99.90;;;;;;5042950;28;20478;-86
2021/11/25 06:05:34;;;;;;;28.23;16.47;;;4.10;99.90;;;;;;5040719;28;20520;-86
2021/11/25 06:08:02;;;;;;;27.10;19.13;;;4.10;99.90;;;;;;5041310;28;20872;-85
2021/11/25 06:10:30;;;;;;;25.23;16.60;;;4.10;99.90;;;;;;5044372;28;20467;-85
2021/11/25 06:12:58;;;;;;;27.30;18.50;;;4.10;99.90;;;;;;5050973;28;20447;-86
2021/11/25 06:15:25;;;;;;;27.73;18.70;;;4.10;99.90;;;;;;5046473;28;20449;-86
2021/11/25 06:17:52;;;;;;;28.73;19.70;;;4.10;99.90;;;;;;5046763;28;20819;-87
2021/11/25 06:20:22;;;;;;;26.57;18.50;;;4.10;99.90;;;;;;5043499;28;20547;-86
2021/11/25 06:22:51;;;;;;;25.10;17.70;;;4.10;99.90;;;;;;5045283;28;20478;-85
2021/11/25 06:25:20;;;;;;;29.80;19.03;;;4.20;99.90;;;;;;5044758;28;20433;-86
2021/11/25 06:27:47;;;;;;;28.10;18.07;;;4.10;99.90;;;;;;5039986;28;21139;-86
2021/11/25 06:30:15;;;;;;;29.03;19.80;;;4.10;99.90;;;;;;5006974;28;1042738;-86
2021/11/25 06:32:45;;;;;;;27.13;18.17;;;4.20;99.90;;;;;;5087937;22;20291;-87
2021/11/25 06:35:13;;;;;;;32.10;18.80;;;4.20;99.90;;;;;;5062687;28;20929;-89
2021/11/25 06:37:44;;;;;;;28.00;18.20;;;4.20;99.90;;;;;;5064307;28;20448;-90
2021/11/25 06:40:13;;;;;;;30.20;19.83;;;4.20;99.90;;;;;;5061642;28;20446;-90
2021/11/25 06:42:40;;;;;;;32.30;20.70;;;4.00;99.90;;;;;;5047740;28;20471;-90
2021/11/25 06:45:07;;;;;;;28.70;19.60;;;3.90;99.90;;;;;;5043448;28;20481;-91
2021/11/25 06:47:36;;;;;;;26.47;18.43;;;3.90;99.90;;;;;;5059577;28;20471;-91
2021/11/25 06:50:04;;;;;;;26.27;17.37;;;3.90;99.90;;;;;;5054249;28;20481;-90
2021/11/25 06:52:31;;;;;;;28.67;19.47;;;4.00;99.90;;;;;;5050749;28;20474;-90
2021/11/25 06:54:59;;;;;;;27.00;18.57;;;3.90;99.90;;;;;;5049608;28;20460;-90
2021/11/25 06:57:26;;;;;;;29.13;19.37;;;3.80;99.90;;;;;;5044195;28;20466;-88
2021/11/25 06:59:53;;;;;;;31.07;18.77;;;3.80;99.90;;;;;;5030463;28;20448;-91
2021/11/25 07:02:20;;;;;;;31.20;20.97;;;3.70;99.90;;;;;;5030426;28;20469;-91
2021/11/25 07:04:49;;;;;;;33.60;21.97;;;3.80;99.90;;;;;;5041925;28;20862;-91
2021/11/25 07:07:15;;;;;;;28.00;18.90;;;3.90;99.90;;;;;;5029023;28;21272;-91
2021/11/25 07:09:57;;;;;;;34.13;21.87;;;3.90;99.90;;;;;;5029919;28;20437;-90
2021/11/25 07:12:25;;;;;;;32.30;21.33;;;3.80;99.90;;;;;;5033542;28;21037;-88
2021/11/25 07:14:52;;;;;;;32.00;22.00;;;3.70;99.90;;;;;;5031539;28;20449;-89
2021/11/25 07:17:18;;;;;;;31.90;20.77;;;3.80;99.90;;;;;;5026888;28;20922;-90
2021/11/25 07:19:45;;;;;;;32.87;21.87;;;3.80;99.90;;;;;;5030722;28;20460;-90
2021/11/25 07:22:12;;;;;;;35.13;22.23;;;3.80;99.90;;;;;;5030962;28;20465;-90
2021/11/25 07:24:48;;;;;;;29.37;20.17;;;4.00;99.90;;;;;;5028241;28;20519;-90
2021/11/25 07:27:15;;;;;;;35.60;23.47;;;4.00;99.90;;;;;;5040404;28;20452;-90
2021/11/25 07:29:44;;;;;;;33.00;23.13;;;3.90;99.90;;;;;;5031222;28;20934;-90
2021/11/25 07:32:11;;;;;;;38.70;21.90;;;3.80;99.90;;;;;;5027119;28;20483;-90
2021/11/25 07:34:38;;;;;;;38.13;24.13;;;3.80;99.90;;;;;;5029764;28;20455;-90
2021/11/25 07:37:05;;;;;;;32.77;21.80;;;3.70;99.90;;;;;;5028966;28;20437;-89
2021/11/25 07:39:32;;;;;;;35.07;21.50;;;3.70;99.90;;;;;;5029454;28;20449;-90
2021/11/25 07:41:58;;;;;;;35.13;22.50;;;3.80;99.90;;;;;;5029148;28;20469;-91
2021/11/25 07:44:25;;;;;;;35.17;23.07;;;3.90;99.90;;;;;;5026870;28;20476;-89
2021/11/25 07:46:53;;;;;;;35.37;22.67;;;3.90;99.90;;;;;;5028159;28;20461;-90
2021/11/25 07:49:22;;;;;;;39.93;25.23;;;4.00;99.90;;;;;;5035309;28;20461;-89
2021/11/25 07:51:49;;;;;;;36.47;21.43;;;3.90;99.90;;;;;;5049147;28;20459;-89
2021/11/25 07:54:16;;;;;;;31.33;22.10;;;3.90;99.90;;;;;;5055413;28;20477;-90
2021/11/25 07:56:43;;;;;;;32.90;21.60;;;3.80;99.90;;;;;;5038754;28;20469;-90
2021/11/25 07:59:10;;;;;;;38.40;20.70;;;3.80;99.90;;;;;;5036030;28;20437;-90
2021/11/25 08:01:40;;;;;;;29.50;21.07;;;3.90;99.90;;;;;;5045489;28;20449;-92
2021/11/25 08:04:08;;;;;;;32.10;20.80;;;3.90;99.90;;;;;;5040021;28;20466;-89
2021/11/25 08:06:35;;;;;;;34.53;20.57;;;3.80;99.90;;;;;;5040918;28;20583;-88
2021/11/25 08:09:02;;;;;;;26.67;20.60;;;3.80;99.90;;;;;;5035119;28;20457;-86
2021/11/25 08:11:29;;;;;;;33.67;21.17;;;4.00;99.90;;;;;;5032098;28;20870;-87
2021/11/25 08:13:56;;;;;;;28.60;20.27;;;4.10;99.90;;;;;;5034579;28;20449;-87
2021/11/25 08:16:23;;;;;;;25.83;18.80;;;4.10;99.90;;;;;;5032342;28;20453;-87
2021/11/25 08:18:52;;;;;;;29.73;19.83;;;4.20;99.90;;;;;;5035023;28;20453;-88
2021/11/25 08:21:22;;;;;;;29.00;21.63;;;4.20;99.90;;;;;;5031546;28;20954;-87
2021/11/25 08:23:49;;;;;;;28.53;20.27;;;4.30;99.90;;;;;;5028938;28;20473;-87
2021/11/25 08:26:16;;;;;;;35.00;22.20;;;4.30;99.90;;;;;;5032963;28;20457;-78
2021/11/25 08:28:42;;;;;;;33.10;20.93;;;4.40;99.90;;;;;;5032247;28;20453;-78
2021/11/25 08:31:10;;;;;;;32.90;21.80;;;4.40;99.90;;;;;;5032087;28;20453;-79
2021/11/25 08:33:37;;;;;;;32.60;21.90;;;4.40;99.90;;;;;;5029211;28;20532;-78
2021/11/25 08:36:07;;;;;;;32.37;22.80;;;4.40;99.90;;;;;;5032281;28;20452;-78
2021/11/25 08:38:35;;;;;;;31.53;20.70;;;4.30;99.90;;;;;;5024209;28;20469;-77
2021/11/25 08:41:02;;;;;;;31.93;20.73;;;4.20;99.90;;;;;;5029189;28;20447;-86
2021/11/25 08:43:29;;;;;;;34.10;21.10;;;4.10;99.90;;;;;;5028358;28;20503;-86
2021/11/25 08:45:56;;;;;;;32.30;20.80;;;4.10;99.90;;;;;;5040136;28;20450;-85
2021/11/25 08:48:22;;;;;;;32.00;20.50;;;4.10;99.90;;;;;;5039854;28;20453;-85
2021/11/25 08:50:49;;;;;;;34.23;22.33;;;4.10;99.90;;;;;;5032053;28;20442;-85
2021/11/25 08:53:17;;;;;;;26.63;19.70;;;4.20;99.90;;;;;;5034341;28;20479;-84
2021/11/25 08:55:47;;;;;;;36.93;22.30;;;4.20;99.90;;;;;;5029200;28;20484;-85
2021/11/25 08:58:14;;;;;;;31.07;19.73;;;4.20;99.90;;;;;;5040720;28;20480;-84
2021/11/25 09:00:41;;;;;;;31.50;20.07;;;4.20;99.90;;;;;;5030795;28;20480;-85
2021/11/25 09:03:08;;;;;;;32.57;21.47;;;4.20;99.90;;;;;;5027408;28;20993;-85
2021/11/25 09:05:35;;;;;;;30.83;19.07;;;4.30;99.90;;;;;;5028063;28;20448;-84
2021/11/25 09:08:02;;;;;;;28.50;19.47;;;4.40;99.90;;;;;;5029916;28;20454;-86
2021/11/25 09:10:29;;;;;;;30.73;21.57;;;4.40;99.90;;;;;;5029749;28;20453;-85
2021/11/25 09:12:57;;;;;;;32.40;20.67;;;4.50;99.90;;;;;;5026973;28;20462;-85
2021/11/25 09:15:24;;;;;;;33.30;22.17;;;4.60;99.90;;;;;;5027223;28;21044;-85
2021/11/25 09:17:51;;;;;;;33.20;21.60;;;4.60;99.90;;;;;;5027668;28;20438;-85
2021/11/25 09:20:18;;;;;;;34.10;22.97;;;4.70;99.90;;;;;;5046179;28;20438;-84
2021/11/25 09:22:45;;;;;;;33.97;23.50;;;4.70;99.90;;;;;;5035182;28;20468;-84
2021/11/25 09:25:11;;;;;;;32.70;22.50;;;4.80;99.90;;;;;;5045927;28;20449;-85
2021/11/25 09:27:38;;;;;;;33.40;23.53;;;4.90;99.90;;;;;;5041078;28;20452;-85
2021/11/25 09:30:07;;;;;;;29.73;21.63;;;4.90;99.90;;;;;;5038524;28;20441;-85
2021/11/25 09:32:34;;;;;;;32.40;22.20;;;5.00;99.90;;;;;;5034505;28;20465;-86
2021/11/25 09:35:01;;;;;;;32.03;21.83;;;5.00;99.90;;;;;;5041016;28;20457;-85
2021/11/25 09:37:29;;;;;;;31.70;22.23;;;5.00;99.90;;;;;;5035671;28;20451;-86
2021/11/25 09:39:56;;;;;;;34.10;21.13;;;5.00;99.90;;;;;;5031932;28;20969;-85
2021/11/25 09:42:23;;;;;;;35.97;21.60;;;5.10;99.90;;;;;;5027013;28;20493;-86
2021/11/25 09:44:51;;;;;;;33.20;21.30;;;5.10;99.90;;;;;;5029016;28;20449;-86
2021/11/25 09:47:19;;;;;;;32.50;20.70;;;5.20;99.90;;;;;;5027199;28;20434;-85
2021/11/25 09:49:46;;;;;;;29.47;20.30;;;5.20;99.90;;;;;;5032143;28;20942;-86
2021/11/25 09:52:13;;;;;;;28.90;21.30;;;5.20;99.90;;;;;;5027668;28;20467;-85
2021/11/25 09:54:40;;;;;;;29.80;21.60;;;5.10;99.90;;;;;;5028024;28;20484;-85
2021/11/25 09:57:07;;;;;;;31.90;22.07;;;5.10;99.90;;;;;;5025769;28;20450;-86
2021/11/25 09:59:34;;;;;;;29.20;19.60;;;5.10;99.90;;;;;;5027754;28;20446;-85
2021/11/25 10:02:01;;;;;;;30.53;21.30;;;5.20;99.90;;;;;;5026362;28;20955;-86
2021/11/25 10:04:29;;;;;;;33.30;21.80;;;5.20;99.90;;;;;;5031394;28;20978;-86
2021/11/25 10:06:57;;;;;;;30.50;20.07;;;5.30;99.90;;;;;;5044518;28;20502;-84
2021/11/25 10:09:33;;;;;;;30.90;20.90;;;5.30;99.90;;;;;;5040256;28;20484;-85
2021/11/25 10:12:01;;;;;;;33.63;21.80;;;5.30;99.90;;;;;;5032909;28;20465;-85
2021/11/25 10:14:37;;;;;;;28.20;20.20;;;5.30;99.90;;;;;;5029953;28;20481;-85
2021/11/25 10:17:05;;;;;;;33.97;21.50;;;5.30;99.90;;;;;;5045853;28;20440;-84
2021/11/25 10:19:33;;;;;;;30.87;20.03;;;5.20;99.90;;;;;;5044625;28;20544;-85
2021/11/25 10:22:08;;;;;;;30.50;19.47;;;5.10;99.90;;;;;;5036490;28;20457;-85
2021/11/25 10:24:37;;;;;;;30.60;20.03;;;5.20;99.90;;;;;;5043919;28;20460;-85
2021/11/25 10:27:14;;;;;;;27.70;19.00;;;5.30;99.90;;;;;;5037115;28;20518;-86
2021/11/25 10:29:41;;;;;;;27.90;18.43;;;5.20;99.90;;;;;;5026250;28;20484;-85
2021/11/25 10:32:14;;;;;;;30.90;21.73;;;5.20;99.90;;;;;;5030290;28;20473;-85
2021/11/25 10:34:54;;;;;;;28.73;19.07;;;5.20;99.90;;;;;;5030130;28;20476;-85
2021/11/25 10:37:36;;;;;;;34.03;20.53;;;5.30;99.90;;;;;;5030231;28;20451;-85
2021/11/25 10:40:22;;;;;;;33.97;20.63;;;5.40;99.90;;;;;;5027569;28;20445;-84
2021/11/25 10:43:17;;;;;;;34.43;21.00;;;5.40;99.90;;;;;;5044493;28;20500;-84
2021/11/25 10:45:44;;;;;;;34.53;21.33;;;5.40;99.90;;;;;;5024932;28;20438;-85
2021/11/25 10:48:11;;;;;;;30.90;20.47;;;5.40;99.90;;;;;;5037632;28;20430;-84
2021/11/25 10:50:39;;;;;;;28.57;18.60;;;5.40;99.90;;;;;;5039023;28;21344;-84
2021/11/25 10:53:08;;;;;;;35.83;22.00;;;5.50;99.90;;;;;;5034332;28;20449;-85
2021/11/25 10:55:37;;;;;;;31.70;21.00;;;5.50;99.90;;;;;;5037700;28;20477;-86
2021/11/25 10:58:06;;;;;;;28.70;19.43;;;5.60;99.90;;;;;;5037301;28;20431;-85
2021/11/25 11:00:36;;;;;;;33.47;20.07;;;5.40;99.90;;;;;;5043594;28;20467;-85
2021/11/25 11:03:09;;;;;;;31.60;20.50;;;5.30;99.90;;;;;;5038284;28;20465;-86
2021/11/25 11:05:55;;;;;;;33.03;20.20;;;5.40;99.90;;;;;;5028545;28;20446;-85
2021/11/25 11:08:23;;;;;;;32.10;19.73;;;5.40;99.90;;;;;;5032316;28;21042;-85
2021/11/25 11:10:52;;;;;;;34.50;21.00;;;5.40;99.90;;;;;;5029890;28;20457;-86
2021/11/25 11:13:33;;;;;;;29.50;20.03;;;5.30;99.90;;;;;;5037323;28;20462;-85
2021/11/25 11:16:13;;;;;;;33.20;21.33;;;5.30;99.90;;;;;;5030156;28;20478;-86
2021/11/25 11:18:46;;;;;;;32.30;21.90;;;5.30;99.90;;;;;;5030452;28;20459;-85
2021/11/25 11:21:32;;;;;;;31.53;21.87;;;5.30;99.90;;;;;;5032174;28;20510;-84
2021/11/25 11:24:01;;;;;;;29.47;21.70;;;5.30;99.90;;;;;;5034358;28;20446;-84
2021/11/25 11:26:43;;;;;;;31.87;20.70;;;5.40;99.90;;;;;;5037372;28;20833;-84
2021/11/25 11:29:12;;;;;;;35.83;21.40;;;5.50;99.90;;;;;;5031136;28;20548;-88
2021/11/25 11:31:47;;;;;;;33.07;21.87;;;5.40;99.90;;;;;;5032237;28;20842;-86
2021/11/25 11:34:23;;;;;;;29.93;20.27;;;5.50;99.90;;;;;;5029555;28;20506;-88
2021/11/25 11:37:02;;;;;;;28.37;20.80;;;5.60;99.90;;;;;;5033200;28;20445;-86
2021/11/25 11:39:34;;;;;;;29.33;20.23;;;5.70;99.90;;;;;;5027633;28;20479;-86
2021/11/25 11:42:16;;;;;;;30.97;21.70;;;5.90;99.90;;;;;;5030823;28;20479;-89
2021/11/25 11:45:09;;;;;;;27.23;19.07;;;5.90;99.90;;;;;;5032209;28;20445;-88
2021/11/25 11:47:38;;;;;;;32.43;21.00;;;6.00;99.90;;;;;;5028223;28;20453;-89
2021/11/25 11:50:15;;;;;;;32.50;21.60;;;6.00;99.90;;;;;;5030308;28;20818;-87
2021/11/25 11:53:51;;;;;;;38.57;22.60;;;5.90;99.90;;;;;;5034847;28;20457;-88
2021/11/25 11:59:44;;;;;;;30.30;20.93;;;6.20;99.90;;;;;;4974811;28;20498;-89
2021/11/25 12:02:41;;;;;;;30.27;20.77;;;6.20;99.90;;;;;;5025994;28;20477;-87
2021/11/25 12:05:34;;;;;;;30.63;22.00;;;6.10;99.90;;;;;;5024922;28;20456;-87
2021/11/25 12:08:46;;;;;;;27.67;19.80;;;6.20;99.90;;;;;;5039498;28;20472;-87
2021/11/25 12:11:19;;;;;;;31.27;21.97;;;6.30;99.90;;;;;;5053386;28;20444;-88
2021/11/25 12:14:01;;;;;;;30.23;20.03;;;6.30;99.90;;;;;;5059521;28;20444;-87
2021/11/25 12:16:31;;;;;;;28.87;20.27;;;6.30;99.90;;;;;;5059326;28;20520;-87
2021/11/25 12:18:59;;;;;;;31.60;22.67;;;6.40;99.90;;;;;;5067259;28;20447;-87
2021/11/25 12:21:41;;;;;;;28.90;19.80;;;6.50;99.90;;;;;;5047503;28;20459;-87
2021/11/25 12:24:19;;;;;;;28.57;18.77;;;6.30;99.40;;;;;;5047885;28;20881;-87
2021/11/25 12:27:10;;;;;;;29.07;19.70;;;6.20;99.70;;;;;;5078657;28;20462;-86
2021/11/25 12:29:40;;;;;;;28.90;20.60;;;6.30;99.80;;;;;;5075307;28;20449;-88
2021/11/25 12:32:30;;;;;;;28.63;19.80;;;6.30;99.60;;;;;;5065536;23;20535;-87
2021/11/25 12:35:00;;;;;;;26.93;19.37;;;6.30;99.50;;;;;;5063639;28;20573;-86
2021/11/25 12:38:02;;;;;;;31.60;21.17;;;6.20;99.60;;;;;;5056763;28;20451;-87
2021/11/25 12:40:57;;;;;;;33.60;20.17;;;6.10;99.90;;;;;;5072082;28;20459;-88
2021/11/25 12:43:25;;;;;;;32.50;22.60;;;6.10;99.90;;;;;;5051012;28;20473;-87
2021/11/25 12:45:58;;;;;;;29.40;21.13;;;6.10;99.90;;;;;;5046000;28;20455;-86
2021/11/25 12:48:28;;;;;;;35.53;22.20;;;6.10;99.90;;;;;;5039506;28;20452;-86
2021/11/25 12:50:59;;;;;;;33.33;22.60;;;6.00;99.90;;;;;;5036470;28;20453;-86
2021/11/25 12:53:29;;;;;;;30.07;20.90;;;6.10;99.90;;;;;;5041792;28;20469;-89
2021/11/25 12:56:01;;;;;;;31.43;21.27;;;6.00;99.90;;;;;;5051138;28;20507;-86